createdAt,value
2023-05-15T00:02:26.822Z,1.67
2023-05-15T00:04:54.692Z,1.77
2023-05-15T00:07:22.451Z,1.63
2023-05-15T00:09:50.250Z,1.50
2023-05-15T00:12:18.270Z,1.63
2023-05-15T00:14:45.946Z,1.53
2023-05-15T00:17:13.614Z,1.50
2023-05-15T00:19:42.729Z,1.60
2023-05-15T00:22:10.581Z,1.60
2023-05-15T00:24:38.337Z,1.67
2023-05-15T00:27:06.427Z,2.83
2023-05-15T00:29:34.317Z,1.50
2023-05-15T00:32:01.968Z,1.40
2023-05-15T00:34:30.028Z,1.50
2023-05-15T00:37:00.769Z,1.40
2023-05-15T00:39:28.680Z,1.40
2023-05-15T00:41:59.539Z,1.30
2023-05-15T00:44:30.825Z,1.87
2023-05-15T00:46:59.160Z,1.40
2023-05-15T00:49:29.566Z,1.57
2023-05-15T00:52:02.013Z,1.90
2023-05-15T00:54:29.876Z,2.13
2023-05-15T00:56:58.267Z,1.80
2023-05-15T00:59:27.014Z,1.63
2023-05-15T01:01:55.458Z,1.80
2023-05-15T01:04:23.290Z,1.50
2023-05-15T01:06:53.484Z,1.90
2023-05-15T01:09:25.077Z,1.60
2023-05-15T01:11:55.946Z,1.60
2023-05-15T01:14:23.605Z,1.80
2023-05-15T01:16:51.483Z,1.57
2023-05-15T01:19:19.496Z,2.10
2023-05-15T01:22:24.014Z,1.50
2023-05-15T01:25:15.125Z,1.70
2023-05-15T01:27:49.849Z,1.73
2023-05-15T01:30:23.401Z,2.47
2023-05-15T01:32:56.785Z,1.70
2023-05-15T01:35:30.091Z,1.70
2023-05-15T01:38:24.898Z,1.73
2023-05-15T01:40:58.261Z,1.50
2023-05-15T01:43:29.893Z,2.00
2023-05-15T01:45:59.377Z,1.90
2023-05-15T01:48:29.553Z,1.70
2023-05-15T01:51:02.308Z,1.60
2023-05-15T01:53:32.974Z,1.40
2023-05-15T01:56:01.119Z,1.40
2023-05-15T01:58:31.978Z,1.53
2023-05-15T02:01:01.924Z,1.50
2023-05-15T02:03:33.579Z,1.50
2023-05-15T02:06:02.657Z,1.73
2023-05-15T02:08:31.721Z,1.60
2023-05-15T02:11:01.660Z,1.70
2023-05-15T02:13:32.099Z,1.40
2023-05-15T02:15:59.882Z,1.67
2023-05-15T02:18:28.811Z,1.60
2023-05-15T02:21:01.006Z,1.80
2023-05-15T02:23:28.742Z,1.50
2023-05-15T02:26:09.769Z,1.50
2023-05-15T02:28:47.032Z,1.80
2023-05-15T02:31:23.755Z,1.80
2023-05-15T02:34:00.141Z,1.60
2023-05-15T02:36:33.391Z,1.77
2023-05-15T02:39:01.964Z,2.13
2023-05-15T02:41:33.029Z,1.50
2023-05-15T02:44:03.759Z,2.00
2023-05-15T02:46:32.938Z,1.73
2023-05-15T02:49:02.012Z,1.80
2023-05-15T02:51:30.149Z,2.03
2023-05-15T02:54:00.897Z,1.97
2023-05-15T02:56:28.607Z,1.77
2023-05-15T02:58:56.753Z,1.80
2023-05-15T03:01:25.938Z,1.80
2023-05-15T03:03:53.887Z,2.00
2023-05-15T03:06:21.660Z,2.00
2023-05-15T03:08:49.376Z,1.70
2023-05-15T03:11:19.232Z,1.90
2023-05-15T03:13:47.031Z,2.00
2023-05-15T03:16:14.734Z,1.90
2023-05-15T03:18:43.850Z,1.60
2023-05-15T03:21:11.544Z,1.60
2023-05-15T03:23:39.402Z,2.13
2023-05-15T03:26:07.052Z,1.63
2023-05-15T03:28:35.083Z,2.13
2023-05-15T03:31:04.865Z,1.87
2023-05-15T03:33:32.901Z,3.07
2023-05-15T03:36:01.916Z,1.87
2023-05-15T03:38:29.617Z,2.53
2023-05-15T03:40:57.322Z,2.03
2023-05-15T03:43:25.240Z,2.53
2023-05-15T03:45:52.961Z,2.50
2023-05-15T03:48:20.754Z,1.70
2023-05-15T03:50:48.556Z,2.27
2023-05-15T03:53:17.726Z,2.10
2023-05-15T03:55:46.201Z,2.10
2023-05-15T03:58:13.879Z,2.13
2023-05-15T04:00:41.593Z,2.37
2023-05-15T04:03:09.438Z,2.20
2023-05-15T04:05:37.388Z,2.40
2023-05-15T04:08:05.676Z,2.00
2023-05-15T04:10:34.743Z,1.97
2023-05-15T04:13:02.460Z,2.10
2023-05-15T04:15:31.180Z,1.97
2023-05-15T04:17:59.012Z,1.57
2023-05-15T04:20:26.790Z,1.80
2023-05-15T04:22:54.891Z,1.70
2023-05-15T04:25:22.776Z,2.00
2023-05-15T04:27:52.246Z,2.30
2023-05-15T04:30:20.125Z,2.13
2023-05-15T04:32:47.932Z,2.13
2023-05-15T04:35:15.783Z,1.87
2023-05-15T04:37:45.613Z,1.80
2023-05-15T04:40:16.232Z,2.20
2023-05-15T04:42:44.144Z,1.70
2023-05-15T04:45:13.240Z,2.77
2023-05-15T04:47:41.054Z,1.80
2023-05-15T04:50:09.659Z,1.90
2023-05-15T04:52:37.406Z,2.17
2023-05-15T04:55:05.892Z,2.30
2023-05-15T04:57:33.602Z,2.50
2023-05-15T05:00:01.314Z,2.50
2023-05-15T05:02:30.365Z,2.57
2023-05-15T05:04:58.231Z,2.57
2023-05-15T05:07:25.999Z,2.53
2023-05-15T05:09:53.654Z,2.57
2023-05-15T05:12:21.325Z,2.60
2023-05-15T05:14:49.333Z,2.80
2023-05-15T05:17:17.105Z,3.13
2023-05-15T05:19:46.206Z,3.60
2023-05-15T05:22:13.933Z,2.87
2023-05-15T05:24:41.744Z,3.00
2023-05-15T05:27:09.526Z,2.77
2023-05-15T05:29:37.275Z,3.20
2023-05-15T05:32:05.435Z,3.20
2023-05-15T05:34:33.207Z,2.53
2023-05-15T05:37:02.407Z,3.00
2023-05-15T05:39:30.480Z,2.80
2023-05-15T05:41:58.144Z,2.80
2023-05-15T05:44:26.317Z,3.00
2023-05-15T05:46:54.366Z,2.70
2023-05-15T05:49:22.096Z,2.50
2023-05-15T05:51:49.774Z,2.90
2023-05-15T05:54:19.212Z,2.53
2023-05-15T05:56:47.097Z,2.80
2023-05-15T05:59:14.794Z,2.50
2023-05-15T06:01:43.332Z,2.40
2023-05-15T06:04:11.333Z,2.27
2023-05-15T06:06:39.080Z,2.30
2023-05-15T06:09:06.925Z,2.27
2023-05-15T06:11:36.072Z,2.30
2023-05-15T06:14:03.924Z,2.60
2023-05-15T06:16:31.683Z,2.60
2023-05-15T06:18:59.422Z,1.87
2023-05-15T06:21:27.099Z,2.33
2023-05-15T06:23:54.804Z,1.90
2023-05-15T06:26:22.907Z,2.27
2023-05-15T06:28:51.996Z,2.43
2023-05-15T06:31:19.682Z,2.17
2023-05-15T06:33:47.460Z,2.00
2023-05-15T06:36:15.148Z,2.33
2023-05-15T06:38:42.848Z,2.20
2023-05-15T06:41:10.626Z,1.90
2023-05-15T06:43:38.544Z,1.90
2023-05-15T06:46:07.700Z,2.17
2023-05-15T06:48:35.410Z,2.40
2023-05-15T06:51:03.651Z,2.10
2023-05-15T06:53:31.582Z,2.93
2023-05-15T06:55:59.296Z,2.20
2023-05-15T06:58:26.982Z,2.03
2023-05-15T07:00:56.241Z,2.00
2023-05-15T07:03:26.670Z,2.40
2023-05-15T07:05:54.499Z,2.27
2023-05-15T07:08:22.423Z,2.23
2023-05-15T07:10:50.674Z,2.27
2023-05-15T07:13:18.977Z,1.90
2023-05-15T07:15:46.790Z,3.00
2023-05-15T07:18:14.762Z,2.10
2023-05-15T07:20:43.896Z,1.90
2023-05-15T07:23:11.972Z,2.57
2023-05-15T07:25:40.833Z,2.70
2023-05-15T07:28:08.817Z,2.40
2023-05-15T07:30:36.625Z,2.40
2023-05-15T07:33:04.586Z,3.37
2023-05-15T07:35:32.269Z,4.03
2023-05-15T07:38:01.440Z,2.60
2023-05-15T07:40:29.193Z,3.53
2023-05-15T07:42:57.116Z,2.60
2023-05-15T07:45:24.974Z,2.73
2023-05-15T07:47:52.863Z,4.23
2023-05-15T07:50:20.629Z,3.10
2023-05-15T07:52:48.397Z,2.97
2023-05-15T07:55:17.398Z,3.07
2023-05-15T07:57:45.677Z,2.87
2023-05-15T08:00:14.629Z,2.80
2023-05-15T08:02:46.247Z,2.63
2023-05-15T08:05:14.053Z,3.47
2023-05-15T08:07:41.754Z,2.87
2023-05-15T08:10:10.328Z,3.00
2023-05-15T08:12:39.446Z,2.60
2023-05-15T08:15:08.415Z,2.70
2023-05-15T08:17:36.093Z,3.37
2023-05-15T08:20:04.950Z,2.93
2023-05-15T08:22:32.653Z,3.00
2023-05-15T08:25:00.910Z,2.90
2023-05-15T08:27:28.550Z,2.30
2023-05-15T08:29:58.600Z,2.80
2023-05-15T08:32:26.797Z,2.40
2023-05-15T08:34:54.540Z,2.40
2023-05-15T08:37:22.212Z,2.40
2023-05-15T08:39:49.935Z,2.50
2023-05-15T08:42:24.011Z,2.33
2023-05-15T08:44:52.040Z,2.20
2023-05-15T08:47:21.772Z,2.77
2023-05-15T08:49:56.500Z,2.57
2023-05-15T08:52:24.755Z,2.10
2023-05-15T08:54:53.727Z,2.70
2023-05-15T08:57:22.062Z,2.30
2023-05-15T08:59:50.987Z,2.30
2023-05-15T09:02:19.564Z,2.57
2023-05-15T09:04:48.755Z,2.17
2023-05-15T09:07:17.170Z,2.63
2023-05-15T09:09:46.278Z,2.07
2023-05-15T09:12:16.764Z,1.97
2023-05-15T09:14:45.037Z,2.03
2023-05-15T09:17:13.094Z,1.97
2023-05-15T09:19:41.084Z,1.90
2023-05-15T09:22:18.320Z,1.97
2023-05-15T09:24:48.125Z,2.03
2023-05-15T09:27:15.907Z,2.20
2023-05-15T09:29:43.719Z,1.70
2023-05-15T09:32:13.814Z,1.97
2023-05-15T09:34:43.778Z,2.10
2023-05-15T09:37:14.467Z,1.80
2023-05-15T09:39:44.875Z,1.70
2023-05-15T09:42:14.396Z,1.70
2023-05-15T09:44:42.736Z,1.87
2023-05-15T09:47:11.415Z,1.80
2023-05-15T09:49:39.429Z,2.80
2023-05-15T09:52:10.114Z,2.17
2023-05-15T09:54:38.725Z,2.37
2023-05-15T09:57:12.059Z,1.90
2023-05-15T09:59:44.530Z,1.73
2023-05-15T10:02:15.343Z,1.75
2023-05-15T10:04:42.963Z,1.80
2023-05-15T10:07:10.773Z,1.80
2023-05-15T10:09:39.162Z,2.10
2023-05-15T10:12:10.563Z,2.10
2023-05-15T10:14:38.409Z,2.75
2023-05-15T10:17:06.641Z,2.38
2023-05-15T10:19:37.581Z,3.85
2023-05-15T10:22:13.246Z,2.15
2023-05-15T10:24:43.117Z,3.65
2023-05-15T10:27:13.945Z,2.50
2023-05-15T10:29:42.332Z,3.08
2023-05-15T10:32:10.399Z,3.55
2023-05-15T10:34:38.536Z,1.65
2023-05-15T10:37:07.610Z,2.33
2023-05-15T10:39:39.951Z,2.85
2023-05-15T10:42:09.504Z,2.40
2023-05-15T10:44:38.474Z,3.08
2023-05-15T10:47:07.417Z,3.38
2023-05-15T10:49:36.080Z,4.30
2023-05-15T10:52:04.199Z,3.08
2023-05-15T10:54:31.922Z,2.22
2023-05-15T10:56:59.664Z,3.67
2023-05-15T10:59:35.079Z,3.20
2023-05-15T11:02:24.349Z,2.67
2023-05-15T11:04:56.715Z,3.08
2023-05-15T11:07:28.245Z,2.47
2023-05-15T11:09:56.924Z,2.60
2023-05-15T11:12:24.783Z,3.00
2023-05-15T11:15:21.060Z,3.60
2023-05-15T11:18:06.400Z,2.65
2023-05-15T11:20:38.638Z,2.70
2023-05-15T11:23:06.502Z,2.55
2023-05-15T11:25:35.907Z,2.65
2023-05-15T11:28:04.904Z,4.40
2023-05-15T11:30:38.165Z,2.83
2023-05-15T11:33:12.181Z,2.45
2023-05-15T11:35:42.183Z,2.13
2023-05-15T11:38:16.266Z,2.28
2023-05-15T11:40:49.841Z,2.05
2023-05-15T11:43:21.939Z,2.42
2023-05-15T11:45:52.807Z,2.25
2023-05-15T11:48:22.038Z,2.00
2023-05-15T11:50:53.589Z,1.77
2023-05-15T11:53:23.171Z,3.65
2023-05-15T11:55:54.346Z,2.75
2023-05-15T11:58:24.981Z,2.33
2023-05-15T12:00:54.447Z,2.13
2023-05-15T12:03:25.854Z,2.75
2023-05-15T12:05:59.820Z,4.30
2023-05-15T12:08:32.576Z,2.60
2023-05-15T12:11:01.606Z,2.03
2023-05-15T12:13:30.341Z,2.15
2023-05-15T12:15:58.478Z,1.77
2023-05-15T12:18:27.641Z,3.30
2023-05-15T12:20:55.905Z,4.32
2023-05-15T12:23:25.781Z,1.83
2023-05-15T12:25:58.383Z,2.25
2023-05-15T12:28:27.140Z,1.95
2023-05-15T12:30:55.328Z,3.78
2023-05-15T12:33:23.427Z,2.97
2023-05-15T12:35:58.277Z,3.78
2023-05-15T12:38:27.960Z,2.83
2023-05-15T12:40:56.962Z,5.05
2023-05-15T12:43:26.090Z,2.55
2023-05-15T12:45:54.440Z,3.03
2023-05-15T12:48:22.536Z,2.53
2023-05-15T12:50:51.532Z,2.33
2023-05-15T12:53:22.726Z,2.58
2023-05-15T12:55:52.085Z,3.05
2023-05-15T12:58:20.006Z,3.90
2023-05-15T13:00:48.644Z,2.60
2023-05-15T13:03:16.771Z,2.75
2023-05-15T13:05:45.985Z,3.35
2023-05-15T13:08:17.619Z,5.38
2023-05-15T13:10:47.798Z,4.28
2023-05-15T13:13:17.502Z,2.53
2023-05-15T13:15:46.104Z,3.33
2023-05-15T13:18:15.319Z,4.10
2023-05-15T13:20:44.709Z,2.38
2023-05-15T13:23:13.376Z,2.63
2023-05-15T13:25:41.067Z,2.40
2023-05-15T13:28:11.144Z,2.20
2023-05-15T13:30:41.645Z,2.95
2023-05-15T13:33:10.526Z,2.78
2023-05-15T13:35:39.222Z,2.53
2023-05-15T13:38:09.443Z,2.42
2023-05-15T13:43:32.597Z,2.97
2023-05-15T13:46:00.219Z,3.17
2023-05-15T13:48:27.856Z,7.05
2023-05-15T13:50:56.168Z,4.05
2023-05-15T13:53:23.786Z,3.78
2023-05-15T13:55:51.527Z,2.90
2023-05-15T13:58:19.284Z,2.53
2023-05-15T14:00:49.506Z,3.78
2023-05-15T14:03:17.600Z,2.97
2023-05-15T14:05:45.326Z,4.70
2023-05-15T14:08:12.958Z,5.53
2023-05-15T14:10:40.566Z,4.00
2023-05-15T14:13:08.165Z,2.40
2023-05-15T14:15:35.794Z,5.40
2023-05-15T14:18:04.995Z,2.88
2023-05-15T14:20:32.662Z,2.72
2023-05-15T14:23:00.268Z,2.58
2023-05-15T14:25:27.929Z,2.67
2023-05-15T14:27:55.680Z,4.25
2023-05-15T14:30:23.791Z,2.45
2023-05-15T14:32:51.797Z,3.13
2023-05-15T14:35:21.004Z,2.63
2023-05-15T14:37:48.607Z,2.40
2023-05-15T14:40:16.752Z,3.60
2023-05-15T14:42:44.373Z,3.00
2023-05-15T14:45:12.286Z,3.03
2023-05-15T14:47:40.592Z,2.30
2023-05-15T14:50:09.625Z,2.97
2023-05-15T14:52:38.606Z,4.40
2023-05-15T14:55:09.192Z,2.60
2023-05-15T14:57:37.679Z,2.00
2023-05-15T15:00:06.910Z,2.80
2023-05-15T15:02:34.928Z,2.85
2023-05-15T15:05:04.269Z,2.17
2023-05-15T15:07:31.899Z,2.40
2023-05-15T15:10:00.856Z,1.80
2023-05-15T15:12:28.495Z,2.57
2023-05-15T15:14:56.118Z,2.23
2023-05-15T15:17:23.751Z,2.45
2023-05-15T15:19:51.388Z,2.37
2023-05-15T15:22:18.960Z,2.03
2023-05-15T15:24:46.594Z,1.70
2023-05-15T15:27:15.499Z,2.10
2023-05-15T15:29:43.134Z,3.95
2023-05-15T15:32:11.081Z,2.23
2023-05-15T15:34:38.822Z,2.13
2023-05-15T15:37:06.570Z,2.10
2023-05-15T15:39:34.280Z,2.03
2023-05-15T15:42:03.973Z,1.83
2023-05-15T15:44:35.949Z,2.55
2023-05-15T15:47:03.670Z,1.93
2023-05-15T15:49:31.857Z,2.10
2023-05-15T15:51:59.534Z,2.27
2023-05-15T15:54:27.218Z,1.70
2023-05-15T15:56:55.015Z,2.13
2023-05-15T15:59:23.149Z,1.93
2023-05-15T16:01:52.779Z,2.55
2023-05-15T16:04:20.398Z,2.37
2023-05-15T16:06:48.524Z,2.92
2023-05-15T16:09:19.029Z,2.63
2023-05-15T16:11:46.640Z,2.73
2023-05-15T16:14:14.552Z,2.70
2023-05-15T16:16:42.286Z,4.10
2023-05-15T16:19:11.358Z,2.77
2023-05-15T16:21:39.111Z,2.50
2023-05-15T16:24:07.367Z,2.70
2023-05-15T16:26:35.170Z,2.03
2023-05-15T16:29:02.843Z,2.20
2023-05-15T16:31:31.167Z,2.27
2023-05-15T16:34:02.090Z,4.37
2023-05-15T16:36:33.135Z,2.13
2023-05-15T16:39:01.712Z,2.20
2023-05-15T16:41:29.656Z,2.03
2023-05-15T16:43:57.361Z,3.33
2023-05-15T16:46:25.018Z,2.57
2023-05-15T16:48:52.722Z,2.22
2023-05-15T16:51:21.457Z,2.33
2023-05-15T16:53:50.478Z,2.50
2023-05-15T16:56:18.142Z,2.43
2023-05-15T16:58:46.066Z,3.08
2023-05-15T17:01:13.783Z,2.87
2023-05-15T17:03:41.503Z,2.90
2023-05-15T17:06:09.394Z,2.83
2023-05-15T17:08:37.052Z,2.20
2023-05-15T17:11:06.158Z,2.20
2023-05-15T17:13:33.814Z,2.13
2023-05-15T17:16:01.505Z,2.37
2023-05-15T17:18:29.179Z,2.37
2023-05-15T17:20:56.880Z,1.73
2023-05-15T17:23:25.045Z,2.13
2023-05-15T17:25:52.738Z,2.90
2023-05-15T17:28:21.703Z,2.00
2023-05-15T17:30:49.507Z,2.67
2023-05-15T17:33:17.141Z,3.60
2023-05-15T17:35:44.920Z,3.13
2023-05-15T17:38:12.611Z,2.30
2023-05-15T17:40:40.740Z,2.80
2023-05-15T17:43:09.821Z,2.30
2023-05-15T17:45:38.923Z,3.70
2023-05-15T17:48:07.074Z,3.43
2023-05-15T17:50:37.965Z,2.87
2023-05-15T17:53:05.757Z,2.40
2023-05-15T17:55:33.584Z,2.73
2023-05-15T17:58:01.576Z,3.07
2023-05-15T18:00:29.233Z,3.93
2023-05-15T18:02:58.327Z,2.90
2023-05-15T18:05:27.667Z,2.97
2023-05-15T18:07:58.018Z,2.80
2023-05-15T18:10:25.976Z,2.40
2023-05-15T18:12:53.678Z,2.97
2023-05-15T18:15:21.528Z,3.00
2023-05-15T18:17:49.812Z,3.37
2023-05-15T18:20:18.887Z,3.37
2023-05-15T18:22:47.017Z,2.73
2023-05-15T18:25:15.078Z,2.40
2023-05-15T18:27:43.323Z,2.90
2023-05-15T18:30:12.159Z,3.00
2023-05-15T18:32:43.726Z,3.00
2023-05-15T18:35:13.962Z,2.40
2023-05-15T18:37:42.909Z,2.20
2023-05-15T18:40:11.644Z,2.77
2023-05-15T18:42:39.378Z,2.57
2023-05-15T18:45:08.549Z,3.70
2023-05-15T18:47:36.354Z,4.73
2023-05-15T18:50:04.110Z,2.67
2023-05-15T18:52:31.890Z,3.10
2023-05-15T18:55:01.420Z,2.37
2023-05-15T18:57:29.109Z,2.20
2023-05-15T18:59:56.828Z,2.30
2023-05-15T19:02:26.113Z,2.50
2023-05-15T19:04:54.481Z,2.37
2023-05-15T19:07:22.618Z,2.70
2023-05-15T19:09:50.393Z,2.20
2023-05-15T19:12:19.407Z,2.03
2023-05-15T19:14:47.134Z,2.83
2023-05-15T19:17:15.414Z,2.23
2023-05-15T19:19:43.262Z,2.17
2023-05-15T19:22:10.967Z,2.07
2023-05-15T19:24:38.659Z,1.70
2023-05-15T19:27:07.457Z,1.70
2023-05-15T19:29:36.499Z,1.77
2023-05-15T19:32:04.328Z,2.00
2023-05-15T19:34:32.101Z,2.23
2023-05-15T19:36:59.840Z,3.10
2023-05-15T19:39:27.550Z,2.00
2023-05-15T19:41:55.993Z,1.90
2023-05-15T19:44:23.891Z,2.00
2023-05-15T19:46:54.515Z,1.90
2023-05-15T19:49:22.284Z,1.87
2023-05-15T19:51:49.895Z,2.00
2023-05-15T19:54:17.570Z,1.90
2023-05-15T19:56:45.276Z,2.67
2023-05-15T19:59:12.916Z,1.90
2023-05-15T20:01:40.628Z,2.60
2023-05-15T20:04:09.653Z,1.63
2023-05-15T20:06:37.309Z,2.07
2023-05-15T20:09:05.020Z,2.03
2023-05-15T20:11:32.770Z,1.60
2023-05-15T20:14:00.688Z,1.90
2023-05-15T20:16:28.498Z,1.70
2023-05-15T20:18:56.218Z,2.43
2023-05-15T20:21:25.267Z,2.17
2023-05-15T20:23:52.924Z,2.33
2023-05-15T20:26:21.754Z,2.27
2023-05-15T20:28:49.407Z,3.27
2023-05-15T20:31:17.150Z,2.23
2023-05-15T20:33:44.889Z,2.53
2023-05-15T20:36:12.501Z,2.33
2023-05-15T20:38:41.596Z,2.23
2023-05-15T20:41:09.432Z,2.50
2023-05-15T20:43:38.538Z,2.40
2023-05-15T20:46:08.750Z,2.27
2023-05-15T20:48:36.664Z,2.07
2023-05-15T20:51:04.649Z,2.50
2023-05-15T20:53:32.285Z,2.90
2023-05-15T20:56:01.240Z,2.37
2023-05-15T20:58:28.892Z,2.37
2023-05-15T21:00:58.220Z,2.20
2023-05-15T21:03:25.901Z,2.37
2023-05-15T21:05:56.099Z,2.03
2023-05-15T21:08:24.948Z,2.87
2023-05-15T21:10:55.377Z,2.50
2023-05-15T21:13:24.384Z,2.50
2023-05-15T21:15:52.122Z,1.93
2023-05-15T21:18:19.859Z,2.17
2023-05-15T21:20:47.498Z,1.97
2023-05-15T21:23:15.104Z,2.37
2023-05-15T21:25:44.004Z,2.30
2023-05-15T21:28:11.636Z,2.40
2023-05-15T21:30:40.582Z,2.73
2023-05-15T21:33:08.369Z,2.47
2023-05-15T21:35:36.088Z,2.30
2023-05-15T21:38:03.702Z,2.43
2023-05-15T21:40:31.362Z,3.20
2023-05-15T21:42:59.048Z,2.27
2023-05-15T21:45:26.717Z,1.87
2023-05-15T21:47:55.792Z,1.83
2023-05-15T21:50:23.505Z,2.20
2023-05-15T21:52:51.648Z,2.03
2023-05-15T21:55:19.970Z,2.40
2023-05-15T21:57:47.598Z,3.30
2023-05-15T22:00:16.216Z,2.47
2023-05-15T22:02:44.099Z,2.20
2023-05-15T22:05:13.411Z,2.63
2023-05-15T22:07:41.324Z,2.50
2023-05-15T22:10:13.768Z,2.77
2023-05-15T22:12:41.393Z,2.37
2023-05-15T22:15:10.568Z,3.17
2023-05-15T22:17:38.885Z,2.40
2023-05-15T22:20:11.395Z,2.70
2023-05-15T22:22:42.812Z,2.83
2023-05-15T22:25:11.086Z,4.40
2023-05-15T22:27:38.873Z,3.77
2023-05-15T22:30:09.612Z,3.70
2023-05-15T22:32:37.622Z,3.80
2023-05-15T22:35:06.141Z,4.20
2023-05-15T22:37:34.018Z,3.83
2023-05-15T22:40:04.546Z,5.47
2023-05-15T22:42:32.521Z,4.70
2023-05-15T22:45:00.823Z,5.97
2023-05-15T22:47:29.249Z,5.80
2023-05-15T22:49:56.996Z,5.57
2023-05-15T22:52:25.260Z,3.83
2023-05-15T22:54:53.066Z,3.90
2023-05-15T22:57:22.213Z,3.37
2023-05-15T22:59:49.973Z,3.70
2023-05-15T23:02:17.748Z,5.93
2023-05-15T23:04:45.753Z,4.90
2023-05-15T23:07:13.653Z,3.43
2023-05-15T23:09:41.450Z,6.83
2023-05-15T23:12:09.391Z,4.40
2023-05-15T23:14:38.513Z,5.23
2023-05-15T23:17:06.637Z,3.47
2023-05-15T23:19:34.345Z,4.07
2023-05-15T23:22:02.262Z,3.83
2023-05-15T23:24:30.203Z,5.40
2023-05-15T23:26:57.900Z,3.53
2023-05-15T23:29:25.558Z,4.43
2023-05-15T23:31:57.097Z,3.00
2023-05-15T23:34:24.825Z,4.30
2023-05-15T23:36:52.525Z,3.03
2023-05-15T23:39:20.147Z,3.40
2023-05-15T23:41:59.537Z,3.43
2023-05-15T23:44:36.181Z,6.37
2023-05-15T23:47:16.282Z,3.67
2023-05-15T23:49:46.695Z,3.90
2023-05-15T23:52:17.349Z,4.00
2023-05-15T23:54:54.289Z,4.10
2023-05-15T23:57:24.856Z,3.73
2023-05-15T23:59:52.850Z,3.90
